createdAt,value
2019-03-28T00:00:56.924Z,96.45
2019-03-28T00:03:27.098Z,96.43
2019-03-28T00:05:56.890Z,96.51
2019-03-28T00:08:26.605Z,96.49
2019-03-28T00:10:56.387Z,96.19
2019-03-28T00:13:26.122Z,96.25
2019-03-28T00:15:55.834Z,96.14
2019-03-28T00:18:25.554Z,96.27
2019-03-28T00:20:55.301Z,96.19
2019-03-28T00:23:26.671Z,96.15
2019-03-28T00:25:56.440Z,96.13
2019-03-28T00:28:27.157Z,96.11
2019-03-28T00:30:57.003Z,96.21
2019-03-28T00:33:26.727Z,96.19
2019-03-28T00:35:56.439Z,96.11
2019-03-28T00:38:26.148Z,96.13
2019-03-28T00:40:56.466Z,96.12
2019-03-28T00:43:26.240Z,96.27
2019-03-28T00:45:56.277Z,96.15
2019-03-28T00:48:27.135Z,96.20
2019-03-28T00:51:34.689Z,96.10
2019-03-28T00:54:04.510Z,96.11
2019-03-28T00:56:46.526Z,96.01
2019-03-28T00:59:05.697Z,95.96
2019-03-28T01:01:35.400Z,96.02
2019-03-28T01:04:05.390Z,96.09
2019-03-28T01:06:35.158Z,96.09
2019-03-28T01:09:07.584Z,96.06
2019-03-28T01:11:37.350Z,96.03
2019-03-28T01:14:07.140Z,96.07
2019-03-28T01:16:36.896Z,96.29
2019-03-28T01:19:06.699Z,96.36
2019-03-28T01:21:36.393Z,96.33
2019-03-28T01:24:06.109Z,96.21
2019-03-28T01:26:35.795Z,96.16
2019-03-28T01:29:06.963Z,96.09
2019-03-28T01:31:36.735Z,96.22
2019-03-28T01:34:06.459Z,96.23
2019-03-28T01:36:36.335Z,96.39
2019-03-28T01:39:06.744Z,96.31
2019-03-28T01:41:36.435Z,96.32
2019-03-28T01:44:06.158Z,96.36
2019-03-28T01:46:35.847Z,96.27
2019-03-28T01:49:05.569Z,96.30
2019-03-28T01:51:35.444Z,96.23
2019-03-28T01:54:05.166Z,96.16
2019-03-28T01:56:34.860Z,96.19
2019-03-28T01:59:04.654Z,96.37
2019-03-28T02:01:34.517Z,96.21
2019-03-28T02:04:04.306Z,96.20
2019-03-28T02:06:34.280Z,96.21
2019-03-28T02:09:06.214Z,96.40
2019-03-28T02:11:36.145Z,96.36
2019-03-28T02:14:05.937Z,96.35
2019-03-28T02:16:35.643Z,96.32
2019-03-28T02:19:05.456Z,96.37
2019-03-28T02:21:35.916Z,96.46
2019-03-28T02:24:05.693Z,96.31
2019-03-28T02:26:35.409Z,96.42
2019-03-28T02:29:05.191Z,96.40
2019-03-28T02:31:34.966Z,96.32
2019-03-28T02:34:04.688Z,96.42
2019-03-28T02:36:34.389Z,96.35
2019-03-28T02:39:05.928Z,96.36
2019-03-28T02:41:35.686Z,96.48
2019-03-28T02:44:05.483Z,96.42
2019-03-28T02:46:35.187Z,96.43
2019-03-28T02:49:04.993Z,96.61
2019-03-28T02:51:34.697Z,96.65
2019-03-28T02:54:05.489Z,96.70
2019-03-28T02:56:35.358Z,96.68
2019-03-28T02:59:05.114Z,96.71
2019-03-28T03:01:34.788Z,96.43
2019-03-28T03:04:04.577Z,96.63
2019-03-28T03:06:34.281Z,96.58
2019-03-28T03:09:05.678Z,96.54
2019-03-28T03:11:35.779Z,96.63
2019-03-28T03:14:05.911Z,96.67
2019-03-28T03:16:35.701Z,96.51
2019-03-28T03:19:05.411Z,96.52
2019-03-28T03:21:35.910Z,96.47
2019-03-28T03:24:05.904Z,96.53
2019-03-28T03:26:35.618Z,96.46
2019-03-28T03:29:05.446Z,96.36
2019-03-28T03:31:35.166Z,96.40
2019-03-28T03:34:05.289Z,96.27
2019-03-28T03:36:35.574Z,96.24
2019-03-28T03:39:07.621Z,96.28
2019-03-28T03:41:37.405Z,96.02
2019-03-28T03:44:07.137Z,96.06
2019-03-28T03:46:36.852Z,96.08
2019-03-28T03:49:06.622Z,96.14
2019-03-28T03:51:37.349Z,96.10
2019-03-28T03:54:07.048Z,96.03
2019-03-28T03:56:36.779Z,96.05
2019-03-28T03:59:06.466Z,96.13
2019-03-28T04:01:36.260Z,96.24
2019-03-28T04:04:06.126Z,96.24
2019-03-28T04:06:35.850Z,96.28
2019-03-28T04:09:06.897Z,96.02
2019-03-28T04:11:36.612Z,95.97
2019-03-28T04:14:06.322Z,95.92
2019-03-28T04:16:36.120Z,96.06
2019-03-28T04:19:06.127Z,96.10
2019-03-28T04:21:35.863Z,96.17
2019-03-28T04:24:05.639Z,96.26
2019-03-28T04:26:35.503Z,96.20
2019-03-28T04:29:05.296Z,96.28
2019-03-28T04:31:35.003Z,96.33
2019-03-28T04:34:07.778Z,96.28
2019-03-28T04:36:36.118Z,96.21
2019-03-28T04:39:06.290Z,96.27
2019-03-28T04:41:36.180Z,96.34
2019-03-28T04:44:05.902Z,96.27
2019-03-28T04:46:35.615Z,96.10
2019-03-28T04:49:05.310Z,96.07
2019-03-28T04:51:35.069Z,96.06
2019-03-28T04:54:04.926Z,95.93
2019-03-28T04:56:34.644Z,95.97
2019-03-28T04:59:04.344Z,96.07
2019-03-28T05:01:34.086Z,96.26
2019-03-28T05:04:03.823Z,96.21
2019-03-28T05:06:33.539Z,96.14
2019-03-28T05:09:04.282Z,96.21
2019-03-28T05:11:34.021Z,96.31
2019-03-28T05:14:03.849Z,95.99
2019-03-28T05:16:33.575Z,96.03
2019-03-28T05:19:03.290Z,96.11
2019-03-28T05:21:33.000Z,96.22
2019-03-28T05:24:02.706Z,96.16
2019-03-28T05:26:32.426Z,96.22
2019-03-28T05:29:02.138Z,96.02
2019-03-28T05:31:31.919Z,96.13
2019-03-28T05:34:01.634Z,95.97
2019-03-28T05:36:31.359Z,96.12
2019-03-28T05:39:01.124Z,96.19
2019-03-28T05:41:30.914Z,96.32
2019-03-28T05:44:00.616Z,96.47
2019-03-28T05:46:30.346Z,96.57
2019-03-28T05:49:00.052Z,96.61
2019-03-28T05:51:32.885Z,96.64
2019-03-28T05:54:02.600Z,96.62
2019-03-28T05:56:32.315Z,96.46
2019-03-28T05:59:10.744Z,96.40
2019-03-28T06:01:33.487Z,96.50
2019-03-28T06:04:03.207Z,96.39
2019-03-28T06:06:32.927Z,96.48
2019-03-28T06:09:02.639Z,96.37
2019-03-28T06:11:32.397Z,96.39
2019-03-28T06:14:02.115Z,96.32
2019-03-28T06:16:31.827Z,96.32
2019-03-28T06:19:01.540Z,96.23
2019-03-28T06:21:31.270Z,96.04
2019-03-28T06:24:00.984Z,96.03
2019-03-28T06:26:30.710Z,96.09
2019-03-28T06:29:00.625Z,96.05
2019-03-28T06:31:30.357Z,96.03
2019-03-28T06:34:00.552Z,96.01
2019-03-28T06:36:30.469Z,96.00
2019-03-28T06:39:00.191Z,96.00
2019-03-28T06:41:29.888Z,96.06
2019-03-28T06:43:59.614Z,95.94
2019-03-28T06:46:29.327Z,95.97
2019-03-28T06:48:59.059Z,95.88
2019-03-28T06:51:28.947Z,95.67
2019-03-28T06:53:58.745Z,95.64
2019-03-28T06:56:28.462Z,95.76
2019-03-28T06:59:04.379Z,95.73
2019-03-28T07:01:38.500Z,95.83
2019-03-28T07:04:08.694Z,95.64
2019-03-28T07:06:38.402Z,95.48
2019-03-28T07:09:09.177Z,95.46
2019-03-28T07:11:38.885Z,95.48
2019-03-28T07:14:08.600Z,95.36
2019-03-28T07:16:38.311Z,95.41
2019-03-28T07:19:08.059Z,95.39
2019-03-28T07:21:37.787Z,95.14
2019-03-28T07:24:07.578Z,95.08
2019-03-28T07:26:37.364Z,95.14
2019-03-28T07:29:07.085Z,95.05
2019-03-28T07:31:36.781Z,95.10
2019-03-28T07:34:06.558Z,95.07
2019-03-28T07:36:36.263Z,94.95
2019-03-28T07:39:07.432Z,94.95
2019-03-28T07:41:37.117Z,94.96
2019-03-28T07:44:06.871Z,94.80
2019-03-28T07:46:36.562Z,94.76
2019-03-28T07:49:06.299Z,95.02
2019-03-28T07:51:36.017Z,94.95
2019-03-28T07:54:05.764Z,95.03
2019-03-28T07:56:35.512Z,94.89
2019-03-28T07:59:05.294Z,94.85
2019-03-28T08:01:34.997Z,94.58
2019-03-28T08:04:04.787Z,94.49
2019-03-28T08:06:34.543Z,94.33
2019-03-28T08:09:05.852Z,94.29
2019-03-28T08:11:35.634Z,94.28
2019-03-28T08:14:05.566Z,94.25
2019-03-28T08:16:35.329Z,94.12
2019-03-28T08:19:07.832Z,94.14
2019-03-28T08:21:36.506Z,94.20
2019-03-28T08:24:06.291Z,94.07
2019-03-28T08:26:36.002Z,94.09
2019-03-28T08:29:05.809Z,93.91
2019-03-28T08:31:36.392Z,93.96
2019-03-28T08:34:06.297Z,93.70
2019-03-28T08:36:36.558Z,93.50
2019-03-28T08:39:07.319Z,93.38
2019-03-28T08:41:37.010Z,92.98
2019-03-28T08:44:07.444Z,93.06
2019-03-28T08:46:37.198Z,92.68
2019-03-28T08:49:06.910Z,92.60
2019-03-28T08:51:36.649Z,92.36
2019-03-28T08:54:06.373Z,92.49
2019-03-28T08:56:36.086Z,92.27
2019-03-28T08:59:05.803Z,92.44
2019-03-28T09:01:35.634Z,92.61
2019-03-28T09:04:05.349Z,92.65
2019-03-28T09:06:35.046Z,92.46
2019-03-28T09:09:06.511Z,92.25
2019-03-28T09:11:36.202Z,92.66
2019-03-28T09:14:05.904Z,92.70
2019-03-28T09:16:35.625Z,92.34
2019-03-28T09:19:05.354Z,92.03
2019-03-28T09:21:35.061Z,91.63
2019-03-28T09:24:04.948Z,91.87
2019-03-28T09:26:34.648Z,91.87
2019-03-28T09:29:04.501Z,91.79
2019-03-28T09:31:34.263Z,91.54
2019-03-28T09:34:04.073Z,91.21
2019-03-28T09:36:33.891Z,91.11
2019-03-28T09:39:04.655Z,91.22
2019-03-28T09:41:34.349Z,91.05
2019-03-28T09:44:04.141Z,90.68
2019-03-28T09:46:33.916Z,90.91
2019-03-28T09:49:03.704Z,91.07
2019-03-28T09:51:35.288Z,90.73
2019-03-28T09:54:05.048Z,90.73
2019-03-28T09:56:34.772Z,90.23
2019-03-28T09:59:04.614Z,90.33
2019-03-28T10:01:34.334Z,89.83
2019-03-28T10:04:06.460Z,89.58
2019-03-28T10:06:35.496Z,89.09
2019-03-28T10:09:06.753Z,88.86
2019-03-28T10:11:36.465Z,89.01
2019-03-28T10:14:06.223Z,88.93
2019-03-28T10:16:36.031Z,88.56
2019-03-28T10:19:05.799Z,88.45
2019-03-28T10:21:37.457Z,88.92
2019-03-28T10:24:06.989Z,88.22
2019-03-28T10:26:36.765Z,88.36
2019-03-28T10:29:06.547Z,88.13
2019-03-28T10:31:36.375Z,88.01
2019-03-28T10:34:06.067Z,88.17
2019-03-28T10:36:35.802Z,88.21
2019-03-28T10:39:07.535Z,88.07
2019-03-28T10:41:39.836Z,87.38
2019-03-28T10:44:08.756Z,87.14
2019-03-28T10:46:38.460Z,86.53
2019-03-28T10:49:08.179Z,86.50
2019-03-28T10:51:43.762Z,86.57
2019-03-28T10:54:19.966Z,86.51
2019-03-28T10:56:52.062Z,86.81
2019-03-28T10:59:23.353Z,86.29
2019-03-28T11:01:50.696Z,86.48
2019-03-28T11:04:19.404Z,86.67
2019-03-28T11:06:49.202Z,87.10
2019-03-28T11:09:18.918Z,87.00
2019-03-28T11:11:48.648Z,86.74
2019-03-28T11:14:18.419Z,87.15
2019-03-28T11:16:48.517Z,87.11
2019-03-28T11:19:18.295Z,87.33
2019-03-28T11:21:48.150Z,87.48
2019-03-28T11:24:20.949Z,87.33
2019-03-28T11:26:50.796Z,85.53
2019-03-28T11:29:20.588Z,84.91
2019-03-28T11:31:52.283Z,85.10
2019-03-28T11:34:21.737Z,85.11
2019-03-28T11:36:51.540Z,84.99
2019-03-28T11:39:21.265Z,85.41
2019-03-28T11:41:51.001Z,84.77
2019-03-28T11:44:20.706Z,84.85
2019-03-28T11:46:50.435Z,85.28
2019-03-28T11:49:20.154Z,84.40
2019-03-28T11:51:49.898Z,83.97
2019-03-28T11:54:19.631Z,84.37
2019-03-28T11:56:49.386Z,83.36
2019-03-28T11:59:19.124Z,83.19
2019-03-28T12:01:59.374Z,83.82
2019-03-28T12:04:20.321Z,83.11
2019-03-28T12:06:50.659Z,82.55
2019-03-28T12:09:20.416Z,82.49
2019-03-28T12:11:52.745Z,82.89
2019-03-28T12:14:21.633Z,83.05
2019-03-28T12:16:51.344Z,82.66
2019-03-28T12:19:21.070Z,83.37
2019-03-28T12:21:50.839Z,83.08
2019-03-28T12:24:20.563Z,83.62
2019-03-28T12:26:50.276Z,83.56
2019-03-28T12:29:19.977Z,83.70
2019-03-28T12:31:49.766Z,83.70
2019-03-28T12:34:19.481Z,83.14
2019-03-28T12:36:49.285Z,83.25
2019-03-28T12:39:19.014Z,82.80
2019-03-28T12:41:48.802Z,82.97
2019-03-28T12:44:18.591Z,83.51
2019-03-28T12:46:48.305Z,84.07
2019-03-28T12:49:18.136Z,83.50
2019-03-28T12:51:47.896Z,83.11
2019-03-28T12:54:17.671Z,83.72
2019-03-28T12:56:47.465Z,83.58
2019-03-28T12:59:17.199Z,83.02
2019-03-28T13:01:46.915Z,82.68
2019-03-28T13:04:16.635Z,83.13
2019-03-28T13:06:46.421Z,82.62
2019-03-28T13:09:16.199Z,82.30
2019-03-28T13:11:45.967Z,82.46
2019-03-28T13:14:15.733Z,82.31
2019-03-28T13:16:45.513Z,82.62
2019-03-28T13:19:15.199Z,82.75
2019-03-28T13:21:44.923Z,82.67
2019-03-28T13:24:14.629Z,83.02
2019-03-28T13:26:44.365Z,83.23
2019-03-28T13:29:14.116Z,83.01
2019-03-28T13:31:43.818Z,83.25
2019-03-28T13:34:13.503Z,82.79
2019-03-28T13:36:43.315Z,82.05
2019-03-28T13:39:12.985Z,81.73
2019-03-28T13:41:44.345Z,81.02
2019-03-28T13:44:14.373Z,81.15
2019-03-28T13:46:44.087Z,80.69
2019-03-28T13:49:13.790Z,80.49
2019-03-28T13:51:43.649Z,81.29
2019-03-28T13:54:13.346Z,81.42
2019-03-28T13:56:43.093Z,81.84
2019-03-28T13:59:12.787Z,82.14
2019-03-28T14:01:42.474Z,82.15
2019-03-28T14:04:12.161Z,82.85
2019-03-28T14:06:41.920Z,82.73
2019-03-28T14:09:11.629Z,82.43
2019-03-28T14:11:41.304Z,82.99
2019-03-28T14:14:11.100Z,83.29
2019-03-28T14:16:40.777Z,83.26
2019-03-28T14:19:10.487Z,82.71
2019-03-28T14:21:40.241Z,82.35
2019-03-28T14:24:11.712Z,82.26
2019-03-28T14:26:41.322Z,82.36
2019-03-28T14:29:10.997Z,82.26
2019-03-28T14:31:40.679Z,82.31
2019-03-28T14:34:10.395Z,82.39
2019-03-28T14:36:40.185Z,82.50
2019-03-28T14:39:09.954Z,82.14
2019-03-28T14:41:39.669Z,82.25
2019-03-28T14:44:09.353Z,82.63
2019-03-28T14:46:39.221Z,82.51
2019-03-28T14:49:08.921Z,82.26
2019-03-28T14:51:38.804Z,81.83
2019-03-28T14:54:08.541Z,81.72
2019-03-28T14:56:39.076Z,81.71
2019-03-28T14:59:09.901Z,82.21
2019-03-28T15:01:39.682Z,82.16
2019-03-28T15:04:09.489Z,82.04
2019-03-28T15:06:39.236Z,81.81
2019-03-28T15:09:09.854Z,81.61
2019-03-28T15:11:39.679Z,81.50
2019-03-28T15:14:09.402Z,81.83
2019-03-28T15:16:39.061Z,81.62
2019-03-28T15:19:08.844Z,81.10
2019-03-28T15:21:38.516Z,81.01
2019-03-28T15:24:08.212Z,81.35
2019-03-28T15:26:37.907Z,80.68
2019-03-28T15:29:07.636Z,80.46
2019-03-28T15:31:37.344Z,81.11
2019-03-28T15:34:07.030Z,79.81
2019-03-28T15:36:36.726Z,80.11
2019-03-28T15:39:08.050Z,80.45
2019-03-28T15:41:37.909Z,79.89
2019-03-28T15:44:07.597Z,80.61
2019-03-28T15:46:37.355Z,80.73
2019-03-28T15:49:07.089Z,80.94
2019-03-28T15:51:37.632Z,80.83
2019-03-28T15:54:07.368Z,80.98
2019-03-28T15:56:37.045Z,80.53
2019-03-28T15:59:06.742Z,80.72
2019-03-28T16:01:36.617Z,80.83
2019-03-28T16:04:06.386Z,80.82
2019-03-28T16:06:36.063Z,81.83
2019-03-28T16:09:07.401Z,82.34
2019-03-28T16:11:37.060Z,82.91
2019-03-28T16:14:06.757Z,82.92
2019-03-28T16:16:36.450Z,83.25
2019-03-28T16:19:06.172Z,83.58
2019-03-28T16:21:35.983Z,83.79
2019-03-28T16:24:05.720Z,83.94
2019-03-28T16:26:35.385Z,84.36
2019-03-28T16:29:05.109Z,84.37
2019-03-28T16:31:34.850Z,84.50
2019-03-28T16:34:07.076Z,84.67
2019-03-28T16:36:36.009Z,84.69
2019-03-28T16:39:06.867Z,84.77
2019-03-28T16:41:37.034Z,84.98
2019-03-28T16:44:06.893Z,84.93
2019-03-28T16:46:36.649Z,85.05
2019-03-28T16:49:06.421Z,85.35
2019-03-28T16:51:38.149Z,85.47
2019-03-28T16:54:07.872Z,85.34
2019-03-28T16:56:37.549Z,85.27
2019-03-28T16:59:07.237Z,85.39
2019-03-28T17:01:37.006Z,85.65
2019-03-28T17:04:19.725Z,85.60
2019-03-28T17:06:38.626Z,85.62
2019-03-28T17:09:09.580Z,85.66
2019-03-28T17:11:39.478Z,85.51
2019-03-28T17:14:09.152Z,85.42
2019-03-28T17:16:39.008Z,85.12
2019-03-28T17:19:08.708Z,85.02
2019-03-28T17:21:39.737Z,85.22
2019-03-28T17:24:09.704Z,84.86
2019-03-28T17:26:39.416Z,84.95
2019-03-28T17:29:09.123Z,84.43
2019-03-28T17:31:38.872Z,84.24
2019-03-28T17:34:08.548Z,84.34
2019-03-28T17:36:38.263Z,84.28
2019-03-28T17:39:08.159Z,84.07
2019-03-28T17:41:37.927Z,84.17
2019-03-28T17:44:07.951Z,84.29
2019-03-28T17:46:37.769Z,83.95
2019-03-28T17:49:07.458Z,83.98
2019-03-28T17:51:40.326Z,83.79
2019-03-28T17:54:08.591Z,83.02
2019-03-28T17:56:38.276Z,82.85
2019-03-28T17:59:08.041Z,82.62
2019-03-28T18:01:37.556Z,82.82
2019-03-28T18:04:07.331Z,82.18
2019-03-28T18:06:37.031Z,82.21
2019-03-28T18:09:07.868Z,82.55
2019-03-28T18:11:37.653Z,82.74
2019-03-28T18:14:07.395Z,82.88
2019-03-28T18:16:37.156Z,83.13
2019-03-28T18:19:06.946Z,82.66
2019-03-28T18:21:36.728Z,81.39
2019-03-28T18:24:06.795Z,81.07
2019-03-28T18:26:36.487Z,80.43
2019-03-28T18:29:06.250Z,80.67
2019-03-28T18:31:49.352Z,80.40
2019-03-28T18:34:07.404Z,80.94
2019-03-28T18:36:37.119Z,80.08
2019-03-28T18:39:07.187Z,80.34
2019-03-28T18:41:37.042Z,79.61
2019-03-28T18:44:06.990Z,79.00
2019-03-28T18:46:46.996Z,79.45
2019-03-28T18:49:16.687Z,79.62
2019-03-28T18:51:46.603Z,79.96
2019-03-28T18:54:20.012Z,80.26
2019-03-28T18:56:51.373Z,80.11
2019-03-28T18:59:21.141Z,80.37
2019-03-28T19:01:53.711Z,80.62
2019-03-28T19:04:28.438Z,80.82
2019-03-28T19:06:58.152Z,81.17
2019-03-28T19:09:27.949Z,81.47
2019-03-28T19:11:57.813Z,81.25
2019-03-28T19:14:27.630Z,81.41
2019-03-28T19:17:02.130Z,81.30
2019-03-28T19:19:39.536Z,81.59
2019-03-28T19:22:06.528Z,81.76
2019-03-28T19:24:39.057Z,81.96
2019-03-28T19:27:09.258Z,82.22
2019-03-28T19:29:39.146Z,82.21
2019-03-28T19:32:10.723Z,82.49
2019-03-28T19:34:40.677Z,82.58
2019-03-28T19:37:11.191Z,82.79
2019-03-28T19:39:41.060Z,82.85
2019-03-28T19:42:13.212Z,83.22
2019-03-28T19:44:43.082Z,83.52
2019-03-28T19:47:12.849Z,83.35
2019-03-28T19:49:43.806Z,83.18
2019-03-28T19:52:13.510Z,83.19
2019-03-28T19:54:43.234Z,83.42
2019-03-28T19:57:13.207Z,83.17
2019-03-28T19:59:43.035Z,83.74
2019-03-28T20:02:14.374Z,83.80
2019-03-28T20:04:44.372Z,84.02
2019-03-28T20:07:21.590Z,84.36
2019-03-28T20:09:45.752Z,84.86
2019-03-28T20:12:15.489Z,85.02
2019-03-28T20:14:48.788Z,85.48
2019-03-28T20:17:18.464Z,85.19
2019-03-28T20:19:48.280Z,85.27
2019-03-28T20:22:18.027Z,85.22
2019-03-28T20:24:47.714Z,85.19
2019-03-28T20:27:17.852Z,85.32
2019-03-28T20:29:47.584Z,85.51
2019-03-28T20:32:17.336Z,85.78
2019-03-28T20:34:49.127Z,85.54
2019-03-28T20:37:18.499Z,85.58
2019-03-28T20:39:53.641Z,85.52
2019-03-28T20:42:23.435Z,85.38
2019-03-28T20:44:54.919Z,85.23
2019-03-28T20:47:26.285Z,85.03
2019-03-28T20:49:58.830Z,84.96
2019-03-28T20:52:30.152Z,84.85
2019-03-28T20:54:59.988Z,85.18
2019-03-28T20:57:29.704Z,84.93
2019-03-28T20:59:59.481Z,84.94
2019-03-28T21:02:30.946Z,85.28
2019-03-28T21:05:02.232Z,85.12
2019-03-28T21:07:32.938Z,84.84
2019-03-28T21:10:06.041Z,84.90
2019-03-28T21:12:35.782Z,84.45
2019-03-28T21:15:07.612Z,84.43
2019-03-28T21:17:37.386Z,84.52
2019-03-28T21:20:07.601Z,84.49
2019-03-28T21:22:39.166Z,84.31
2019-03-28T21:25:08.999Z,84.33
2019-03-28T21:27:38.758Z,84.56
2019-03-28T21:30:09.455Z,84.36
2019-03-28T21:32:39.224Z,84.47
2019-03-28T21:35:09.970Z,84.46
2019-03-28T21:37:39.691Z,83.63
2019-03-28T21:40:10.494Z,83.71
2019-03-28T21:42:43.929Z,83.48
2019-03-28T21:45:14.952Z,83.80
2019-03-28T21:47:44.838Z,83.52
2019-03-28T21:50:15.941Z,83.50
2019-03-28T21:52:45.770Z,83.52
2019-03-28T21:55:16.839Z,83.71
2019-03-28T21:57:46.693Z,83.80
2019-03-28T22:00:18.020Z,83.89
2019-03-28T22:02:47.758Z,84.43
2019-03-28T22:05:17.569Z,84.15
2019-03-28T22:07:47.312Z,84.06
2019-03-28T22:10:17.411Z,84.31
2019-03-28T22:12:47.114Z,84.42
2019-03-28T22:15:16.914Z,84.65
2019-03-28T22:17:46.701Z,85.01
2019-03-28T22:20:17.278Z,84.96
2019-03-28T22:22:47.707Z,84.87
2019-03-28T22:25:17.531Z,85.12
2019-03-28T22:27:47.693Z,85.11
2019-03-28T22:30:17.768Z,85.34
2019-03-28T22:32:47.627Z,85.40
2019-03-28T22:35:17.450Z,85.55
2019-03-28T22:37:47.192Z,85.63
2019-03-28T22:40:16.903Z,85.91
2019-03-28T22:42:46.732Z,86.03
2019-03-28T22:45:17.987Z,86.07
2019-03-28T22:47:48.297Z,86.32
2019-03-28T22:50:18.176Z,86.35
2019-03-28T22:52:48.987Z,86.25
2019-03-28T22:55:18.691Z,86.26
2019-03-28T22:57:48.444Z,86.32
2019-03-28T23:00:19.684Z,86.45
2019-03-28T23:02:49.478Z,86.60
2019-03-28T23:05:19.457Z,86.33
2019-03-28T23:07:49.277Z,86.26
2019-03-28T23:10:20.954Z,86.15
2019-03-28T23:12:50.611Z,86.39
2019-03-28T23:15:21.948Z,86.44
2019-03-28T23:17:51.998Z,86.35
2019-03-28T23:20:21.827Z,86.57
2019-03-28T23:22:51.600Z,86.47
2019-03-28T23:25:21.389Z,86.72
2019-03-28T23:27:51.224Z,86.63
2019-03-28T23:30:20.961Z,86.66
2019-03-28T23:32:50.663Z,86.62
2019-03-28T23:35:20.497Z,86.46
2019-03-28T23:37:50.298Z,86.79
2019-03-28T23:40:20.061Z,86.75
2019-03-28T23:42:49.782Z,87.01
2019-03-28T23:45:19.787Z,87.17
2019-03-28T23:47:49.833Z,87.56
2019-03-28T23:50:19.553Z,87.65
2019-03-28T23:52:51.388Z,87.69
2019-03-28T23:55:21.142Z,88.10
2019-03-28T23:57:50.876Z,87.99
